Time;durP1;ratioP1;P1;durP2;ratioP2;P2;SDS_P1;SDS_P2;PMS_P1;PMS_P2;Temp;Humidity;BMP_temperature;BMP_pressure;BME280_temperature;BME280_humidity;BME280_pressure;Samples;Min_cycle;Max_cycle;Signal;HPM_P1;HPM_P2
2021/09/10 00:02:22;;;;;;;16.88;15.38;;;15.80;82.50;;;;;;4937423;29;20052;-71
2021/09/10 00:04:54;;;;;;;16.77;15.27;;;15.80;83.30;;;;;;4935917;29;20048;-71
2021/09/10 00:07:26;;;;;;;16.98;15.43;;;15.70;83.10;;;;;;4936219;29;20146;-72
2021/09/10 00:09:58;;;;;;;16.20;14.90;;;15.70;83.10;;;;;;4935528;29;20070;-72
2021/09/10 00:12:30;;;;;;;16.27;14.80;;;15.70;82.70;;;;;;4948318;29;20048;-72
2021/09/10 00:15:04;;;;;;;15.20;14.00;;;15.70;82.40;;;;;;4937926;29;20090;-73
2021/09/10 00:17:35;;;;;;;16.02;14.65;;;15.80;83.00;;;;;;4942137;29;20135;-71
2021/09/10 00:20:08;;;;;;;16.42;14.90;;;15.80;82.90;;;;;;4935160;29;20533;-72
2021/09/10 00:22:40;;;;;;;16.60;14.90;;;15.80;82.60;;;;;;4934981;29;20075;-71
2021/09/10 00:25:12;;;;;;;16.58;15.15;;;15.70;82.60;;;;;;4942136;29;20047;-71
2021/09/10 00:27:44;;;;;;;15.63;14.32;;;15.70;82.80;;;;;;4936861;29;20118;-72
2021/09/10 00:30:16;;;;;;;16.23;14.75;;;15.70;83.30;;;;;;4936149;29;20462;-72
2021/09/10 00:32:48;;;;;;;16.30;14.90;;;15.70;83.50;;;;;;4934328;29;20126;-72
2021/09/10 00:35:20;;;;;;;16.35;14.88;;;15.70;83.70;;;;;;4933370;29;20131;-73
2021/09/10 00:37:52;;;;;;;16.65;15.35;;;15.70;83.50;;;;;;4933156;29;20522;-71
2021/09/10 00:40:24;;;;;;;17.45;15.60;;;15.70;83.30;;;;;;4933701;29;20047;-72
2021/09/10 00:42:55;;;;;;;16.80;15.40;;;15.70;83.40;;;;;;4925602;30;20179;-73
2021/09/10 00:45:27;;;;;;;15.98;14.65;;;15.70;83.00;;;;;;4935312;29;21002;-72
2021/09/10 00:47:59;;;;;;;15.35;14.07;;;15.70;82.80;;;;;;4936660;29;20047;-72
2021/09/10 00:50:32;;;;;;;16.17;14.77;;;15.80;82.50;;;;;;4934657;29;20052;-72
2021/09/10 00:53:04;;;;;;;15.60;14.40;;;15.80;82.60;;;;;;4936168;29;20126;-72
2021/09/10 00:55:37;;;;;;;15.98;14.65;;;15.80;82.60;;;;;;4933004;29;20477;-73
2021/09/10 00:58:09;;;;;;;16.27;14.90;;;15.80;83.30;;;;;;4932035;29;20090;-71
2021/09/10 01:00:41;;;;;;;15.60;14.15;;;15.80;82.30;;;;;;4933678;29;20055;-72
2021/09/10 01:03:14;;;;;;;16.15;14.75;;;15.70;82.30;;;;;;4933989;29;20081;-72
2021/09/10 01:05:46;;;;;;;15.80;14.50;;;15.80;82.80;;;;;;4931411;29;20055;-73
2021/09/10 01:08:18;;;;;;;16.90;15.30;;;15.70;82.70;;;;;;4934253;29;20119;-73
2021/09/10 01:10:51;;;;;;;16.30;14.90;;;15.70;82.80;;;;;;4934469;29;20144;-72
2021/09/10 01:13:24;;;;;;;16.33;14.93;;;15.60;82.70;;;;;;4933423;29;20421;-72
2021/09/10 01:15:57;;;;;;;16.15;14.82;;;15.60;82.40;;;;;;4932520;29;20070;-72
2021/09/10 01:18:29;;;;;;;16.80;15.40;;;15.50;83.00;;;;;;4934850;29;20059;-71
2021/09/10 01:21:01;;;;;;;16.95;15.43;;;15.50;83.20;;;;;;4931011;29;20225;-71
2021/09/10 01:23:33;;;;;;;16.92;15.52;;;15.40;83.10;;;;;;4934339;29;20534;-73
2021/09/10 01:26:06;;;;;;;17.02;15.63;;;15.40;83.20;;;;;;4934143;29;20163;-72
2021/09/10 01:28:38;;;;;;;15.93;14.63;;;15.30;83.20;;;;;;4933853;29;20524;-73
2021/09/10 01:31:10;;;;;;;16.73;15.32;;;15.30;83.40;;;;;;4934804;29;20052;-73
2021/09/10 01:33:42;;;;;;;16.35;14.95;;;15.30;83.20;;;;;;4935116;29;20610;-74
2021/09/10 01:36:14;;;;;;;16.20;14.80;;;15.30;83.10;;;;;;4933183;29;20124;-73
2021/09/10 01:38:46;;;;;;;16.95;15.48;;;15.30;83.40;;;;;;4933322;29;20078;-73
2021/09/10 01:41:18;;;;;;;15.88;14.57;;;15.30;83.10;;;;;;4932834;29;20408;-73
2021/09/10 01:43:50;;;;;;;17.02;15.32;;;15.30;82.90;;;;;;4936881;29;20154;-72
2021/09/10 01:46:22;;;;;;;17.23;15.82;;;15.30;82.90;;;;;;4934504;29;20064;-71
2021/09/10 01:48:54;;;;;;;16.75;15.10;;;15.30;82.80;;;;;;4933239;29;20071;-72
2021/09/10 01:51:31;;;;;;;16.58;15.10;;;15.30;82.70;;;;;;4932629;29;21010;-71
2021/09/10 01:54:03;;;;;;;15.43;14.13;;;15.40;82.90;;;;;;4936920;29;20075;-70
2021/09/10 01:56:35;;;;;;;16.55;15.05;;;15.40;82.70;;;;;;4929777;29;20047;-71
2021/09/10 01:59:07;;;;;;;15.63;14.32;;;15.40;82.50;;;;;;4932938;29;20582;-72
2021/09/10 02:01:39;;;;;;;15.73;14.45;;;15.30;82.60;;;;;;4932174;29;20137;-71
2021/09/10 02:04:11;;;;;;;17.30;15.82;;;15.30;82.70;;;;;;4933444;29;20139;-72
2021/09/10 02:06:43;;;;;;;16.45;15.07;;;15.30;82.60;;;;;;4933487;29;20522;-71
2021/09/10 02:09:15;;;;;;;16.02;14.63;;;15.20;82.60;;;;;;4934307;29;20435;-71
2021/09/10 02:11:47;;;;;;;16.02;14.73;;;15.20;82.60;;;;;;4934278;29;20643;-71
2021/09/10 02:14:19;;;;;;;15.85;14.48;;;15.20;82.30;;;;;;4934526;29;20579;-71
2021/09/10 02:16:51;;;;;;;16.67;15.35;;;15.20;82.50;;;;;;4932497;29;20062;-71
2021/09/10 02:19:23;;;;;;;16.90;15.32;;;15.20;82.50;;;;;;4934366;29;20672;-72
2021/09/10 02:21:55;;;;;;;16.15;14.75;;;15.20;82.60;;;;;;4935869;29;20582;-71
2021/09/10 02:24:27;;;;;;;16.45;15.13;;;15.20;82.40;;;;;;4933435;29;20063;-73
2021/09/10 02:26:59;;;;;;;16.42;15.02;;;15.20;82.30;;;;;;4931934;29;20059;-70
2021/09/10 02:29:31;;;;;;;17.13;15.60;;;15.20;82.80;;;;;;4934035;29;20054;-70
2021/09/10 02:32:04;;;;;;;16.67;15.38;;;15.10;83.20;;;;;;4934149;29;20044;-70
2021/09/10 02:34:35;;;;;;;16.58;15.20;;;15.10;82.70;;;;;;4934896;29;20438;-69
2021/09/10 02:37:07;;;;;;;16.65;15.07;;;15.10;82.60;;;;;;4932432;29;20051;-71
2021/09/10 02:39:39;;;;;;;16.42;15.02;;;15.10;82.60;;;;;;4931765;29;20087;-72
2021/09/10 02:42:11;;;;;;;16.55;15.13;;;15.10;82.40;;;;;;4933759;29;20056;-70
2021/09/10 02:44:43;;;;;;;16.55;15.25;;;15.10;82.30;;;;;;4933633;29;20133;-71
2021/09/10 02:47:15;;;;;;;16.23;14.70;;;15.00;82.60;;;;;;4932271;29;20083;-70
2021/09/10 02:49:47;;;;;;;15.90;14.70;;;15.00;82.40;;;;;;4932741;29;20112;-72
2021/09/10 02:52:19;;;;;;;16.52;15.13;;;15.00;82.20;;;;;;4930202;29;20051;-70
2021/09/10 02:54:51;;;;;;;16.38;14.98;;;15.00;82.50;;;;;;4919578;29;20148;-71
2021/09/10 02:57:23;;;;;;;15.80;14.30;;;14.90;83.10;;;;;;4930679;29;20039;-71
2021/09/10 02:59:56;;;;;;;15.82;14.57;;;14.90;82.70;;;;;;4930603;29;20132;-71
2021/09/10 03:02:29;;;;;;;16.52;15.23;;;14.90;82.70;;;;;;4933349;29;20125;-70
2021/09/10 03:05:01;;;;;;;15.32;13.95;;;14.90;82.60;;;;;;4933651;29;20102;-72
2021/09/10 03:07:34;;;;;;;16.38;14.93;;;14.90;83.00;;;;;;4932925;29;20065;-72
2021/09/10 03:10:07;;;;;;;15.82;14.55;;;14.80;82.70;;;;;;4933577;29;20158;-71
2021/09/10 03:12:39;;;;;;;16.08;14.48;;;14.80;82.70;;;;;;4930157;29;20055;-70
2021/09/10 03:15:12;;;;;;;16.23;14.82;;;14.80;83.00;;;;;;4932061;29;20054;-71
2021/09/10 03:17:44;;;;;;;15.57;14.25;;;14.80;82.90;;;;;;4933517;29;20123;-71
2021/09/10 03:20:16;;;;;;;15.65;14.27;;;14.70;83.00;;;;;;4933795;29;20044;-71
2021/09/10 03:22:48;;;;;;;16.08;14.70;;;14.70;83.70;;;;;;4917237;29;20109;-72
2021/09/10 03:25:21;;;;;;;15.90;14.60;;;14.60;83.60;;;;;;4917477;29;20067;-72
2021/09/10 03:27:53;;;;;;;16.55;14.85;;;14.60;83.30;;;;;;4930098;29;20063;-71
2021/09/10 03:30:25;;;;;;;15.40;14.15;;;14.60;83.80;;;;;;4915384;30;20040;-71
2021/09/10 03:32:58;;;;;;;15.88;14.57;;;14.60;82.90;;;;;;4920913;29;20059;-72
2021/09/10 03:35:30;;;;;;;15.52;14.23;;;14.60;82.80;;;;;;4933640;29;20043;-73
2021/09/10 03:38:02;;;;;;;15.13;13.93;;;14.60;83.20;;;;;;4918546;29;20059;-72
2021/09/10 03:40:35;;;;;;;16.20;14.80;;;14.50;83.40;;;;;;4930964;29;20795;-72
2021/09/10 03:43:08;;;;;;;15.73;14.35;;;14.50;83.40;;;;;;4931863;29;20040;-71
2021/09/10 03:45:40;;;;;;;15.43;14.13;;;14.40;83.30;;;;;;4933278;29;20055;-72
2021/09/10 03:48:12;;;;;;;16.27;14.77;;;14.40;83.20;;;;;;4931595;29;20052;-72
2021/09/10 03:50:44;;;;;;;15.13;13.73;;;14.40;83.30;;;;;;4918865;29;20047;-73
2021/09/10 03:53:16;;;;;;;15.35;13.77;;;14.40;83.50;;;;;;4933109;29;20070;-72
2021/09/10 03:55:48;;;;;;;14.95;13.73;;;14.40;83.50;;;;;;4930360;29;20143;-72
2021/09/10 03:58:20;;;;;;;15.48;14.18;;;14.30;83.50;;;;;;4934241;29;20075;-72
2021/09/10 04:00:52;;;;;;;15.38;14.05;;;14.30;83.70;;;;;;4935220;29;20051;-71
2021/09/10 04:03:26;;;;;;;15.75;14.45;;;14.30;83.80;;;;;;4939430;29;20174;-72
2021/09/10 04:05:58;;;;;;;14.85;13.38;;;14.30;83.50;;;;;;4935254;29;20059;-72
2021/09/10 04:08:31;;;;;;;15.65;14.23;;;14.30;83.10;;;;;;4937445;29;20427;-72
2021/09/10 04:11:03;;;;;;;15.57;14.27;;;14.30;82.70;;;;;;4937169;29;20055;-72
2021/09/10 04:13:35;;;;;;;15.45;13.88;;;14.30;82.90;;;;;;4934635;29;20085;-72
2021/09/10 04:16:07;;;;;;;14.93;13.63;;;14.30;82.80;;;;;;4937305;29;20047;-71
2021/09/10 04:18:39;;;;;;;14.98;13.68;;;14.30;82.80;;;;;;4937053;29;20051;-72
2021/09/10 04:21:11;;;;;;;15.30;13.98;;;14.20;82.50;;;;;;4936572;29;20624;-72
2021/09/10 04:23:43;;;;;;;14.75;13.38;;;14.20;82.60;;;;;;4937015;29;20483;-71
2021/09/10 04:26:15;;;;;;;14.23;13.07;;;14.20;83.20;;;;;;4920731;29;20108;-72
2021/09/10 04:28:47;;;;;;;15.13;13.65;;;14.10;83.30;;;;;;4935171;29;20143;-72
2021/09/10 04:31:19;;;;;;;16.08;14.77;;;14.10;83.50;;;;;;4935181;29;20506;-71
2021/09/10 04:33:51;;;;;;;15.55;14.05;;;14.10;83.50;;;;;;4939521;29;20047;-72
2021/09/10 04:36:23;;;;;;;15.30;13.93;;;14.10;83.50;;;;;;4936339;29;20117;-71
2021/09/10 04:38:55;;;;;;;15.05;13.75;;;14.00;84.20;;;;;;4937740;29;20137;-71
2021/09/10 04:41:27;;;;;;;15.05;13.68;;;14.00;83.50;;;;;;4932144;29;20501;-71
2021/09/10 04:44:00;;;;;;;14.70;13.32;;;14.00;83.60;;;;;;4937212;29;20138;-71
2021/09/10 04:46:32;;;;;;;14.55;13.35;;;13.90;83.70;;;;;;4934962;29;20415;-72
2021/09/10 04:49:04;;;;;;;14.07;12.77;;;13.80;83.90;;;;;;4935095;29;20047;-73
2021/09/10 04:51:36;;;;;;;15.07;13.05;;;13.80;83.90;;;;;;4935063;29;20138;-72
2021/09/10 04:54:08;;;;;;;15.10;13.70;;;13.80;84.10;;;;;;4937292;29;20543;-71
2021/09/10 04:56:40;;;;;;;14.88;13.38;;;13.70;84.50;;;;;;4935775;29;20059;-71
2021/09/10 04:59:13;;;;;;;14.18;12.98;;;13.70;84.10;;;;;;4935702;29;20065;-71
2021/09/10 05:01:47;;;;;;;14.60;13.40;;;13.70;84.20;;;;;;4932237;29;20089;-69
2021/09/10 05:04:21;;;;;;;14.23;12.82;;;13.70;84.60;;;;;;4935974;29;20197;-70
2021/09/10 05:06:54;;;;;;;14.40;13.20;;;13.60;85.00;;;;;;4934979;29;20140;-71
2021/09/10 05:09:25;;;;;;;14.40;13.13;;;13.60;84.80;;;;;;4934229;29;20662;-70
2021/09/10 05:11:57;;;;;;;14.38;13.07;;;13.60;84.70;;;;;;4941104;29;20083;-72
2021/09/10 05:14:30;;;;;;;14.93;13.50;;;13.70;85.60;;;;;;4936710;29;20130;-71
2021/09/10 05:17:02;;;;;;;14.38;13.07;;;13.70;84.90;;;;;;4933644;29;20655;-71
2021/09/10 05:19:34;;;;;;;14.45;13.15;;;13.60;84.70;;;;;;4935801;29;20047;-71
2021/09/10 05:22:06;;;;;;;15.70;14.18;;;13.60;84.80;;;;;;4935943;29;20142;-70
2021/09/10 05:24:39;;;;;;;14.20;12.82;;;13.60;84.90;;;;;;4936282;29;20055;-71
2021/09/10 05:27:11;;;;;;;13.70;12.50;;;13.60;85.00;;;;;;4931149;29;20062;-70
2021/09/10 05:29:43;;;;;;;14.68;13.38;;;13.60;84.90;;;;;;4932496;29;20043;-69
2021/09/10 05:32:15;;;;;;;15.48;13.57;;;13.70;85.20;;;;;;4940349;29;20063;-71
2021/09/10 05:34:47;;;;;;;14.50;13.00;;;13.70;84.70;;;;;;4932834;29;20217;-71
2021/09/10 05:37:18;;;;;;;18.35;13.65;;;13.70;84.20;;;;;;4933717;29;20044;-71
2021/09/10 05:39:50;;;;;;;15.75;13.15;;;13.70;84.30;;;;;;4934517;29;20430;-71
2021/09/10 05:42:22;;;;;;;14.80;13.55;;;13.70;84.10;;;;;;4932147;29;20076;-71
2021/09/10 05:44:54;;;;;;;14.77;13.38;;;13.80;83.90;;;;;;4932337;29;20072;-71
2021/09/10 05:47:26;;;;;;;15.20;13.73;;;13.90;83.70;;;;;;4931478;29;20104;-70
2021/09/10 05:49:58;;;;;;;15.02;13.57;;;14.00;83.50;;;;;;4931880;29;20047;-71
2021/09/10 05:52:30;;;;;;;14.82;13.63;;;14.10;84.10;;;;;;4931493;29;20058;-71
2021/09/10 05:55:03;;;;;;;14.30;13.02;;;14.20;84.90;;;;;;4931883;29;20413;-71
2021/09/10 05:57:35;;;;;;;15.07;13.77;;;14.40;84.00;;;;;;4946118;29;20062;-71
2021/09/10 06:00:10;;;;;;;15.00;13.63;;;14.50;85.30;;;;;;4933255;29;20043;-70
2021/09/10 06:02:44;;;;;;;15.60;13.25;;;14.60;84.10;;;;;;4932021;29;20067;-71
2021/09/10 06:05:17;;;;;;;14.32;13.10;;;14.60;83.50;;;;;;4933745;29;20066;-72
2021/09/10 06:07:49;;;;;;;14.85;13.55;;;14.70;83.50;;;;;;4932067;29;20150;-72
2021/09/10 06:10:21;;;;;;;15.43;14.02;;;14.80;82.60;;;;;;4931510;29;20047;-72
2021/09/10 06:12:53;;;;;;;15.45;13.90;;;14.90;84.10;;;;;;4935200;29;20154;-73
2021/09/10 06:15:25;;;;;;;15.45;14.00;;;15.00;83.20;;;;;;4935005;29;20048;-72
2021/09/10 06:17:57;;;;;;;16.15;14.75;;;15.10;83.20;;;;;;4934259;29;20061;-71
2021/09/10 06:20:29;;;;;;;16.38;14.95;;;15.20;83.30;;;;;;4930378;29;20904;-72
2021/09/10 06:23:01;;;;;;;16.60;15.18;;;15.40;82.70;;;;;;4934867;29;20064;-71
2021/09/10 06:25:33;;;;;;;16.60;15.20;;;15.40;82.70;;;;;;4931120;29;20157;-72
2021/09/10 06:28:05;;;;;;;16.83;15.32;;;15.40;82.90;;;;;;4933408;29;20059;-70
2021/09/10 06:30:37;;;;;;;17.25;15.70;;;15.50;82.50;;;;;;4932883;29;20146;-72
2021/09/10 06:33:09;;;;;;;16.17;14.80;;;15.60;82.90;;;;;;4934194;29;20055;-71
2021/09/10 06:35:41;;;;;;;16.25;14.85;;;15.70;82.40;;;;;;4932563;29;20065;-71
2021/09/10 06:38:13;;;;;;;15.98;14.68;;;15.80;82.00;;;;;;4934466;29;21085;-72
2021/09/10 06:40:47;;;;;;;15.63;14.23;;;15.70;81.40;;;;;;4935572;29;20063;-72
2021/09/10 06:43:22;;;;;;;15.57;14.27;;;15.90;81.30;;;;;;4931837;29;20100;-72
2021/09/10 06:45:54;;;;;;;16.40;14.98;;;16.00;81.10;;;;;;4933769;29;20055;-73
2021/09/10 06:48:26;;;;;;;15.90;14.52;;;16.20;78.10;;;;;;4918008;29;20043;-73
2021/09/10 06:50:58;;;;;;;15.65;14.45;;;16.30;78.40;;;;;;4932922;29;20865;-73
2021/09/10 06:53:30;;;;;;;16.08;14.55;;;16.30;76.60;;;;;;4933774;29;20058;-72
2021/09/10 06:56:03;;;;;;;16.70;15.30;;;16.50;77.40;;;;;;4932289;29;20056;-72
2021/09/10 06:58:34;;;;;;;16.13;14.82;;;16.60;77.20;;;;;;4933100;29;20051;-72
2021/09/10 07:01:06;;;;;;;16.45;15.13;;;16.80;76.70;;;;;;4930194;29;20506;-72
2021/09/10 07:03:39;;;;;;;16.63;15.05;;;16.90;76.80;;;;;;4918452;29;20522;-72
2021/09/10 07:06:12;;;;;;;15.70;14.38;;;17.00;76.00;;;;;;4934175;29;20055;-72
2021/09/10 07:08:44;;;;;;;15.35;14.15;;;17.10;74.80;;;;;;4933968;29;20047;-72
2021/09/10 07:11:16;;;;;;;15.93;14.68;;;17.10;75.50;;;;;;4931518;29;20495;-71
2021/09/10 07:13:49;;;;;;;15.88;14.55;;;17.30;76.20;;;;;;4931612;29;20675;-72
2021/09/10 07:16:21;;;;;;;16.25;14.95;;;17.50;77.00;;;;;;4934331;29;20151;-72
2021/09/10 07:18:53;;;;;;;15.65;14.25;;;17.70;77.50;;;;;;4940290;29;20074;-72
2021/09/10 07:21:25;;;;;;;15.27;13.98;;;17.80;77.20;;;;;;4930162;29;20060;-73
2021/09/10 07:23:57;;;;;;;16.15;14.82;;;18.00;75.80;;;;;;4936235;29;20066;-72
2021/09/10 07:26:31;;;;;;;16.38;14.98;;;18.10;76.50;;;;;;4931939;29;20054;-72
2021/09/10 07:29:03;;;;;;;16.67;15.13;;;18.20;75.80;;;;;;4936597;29;20057;-72
2021/09/10 07:31:35;;;;;;;16.90;15.50;;;18.30;75.40;;;;;;4937228;29;20055;-71
2021/09/10 07:34:07;;;;;;;16.55;15.15;;;18.50;75.50;;;;;;4939472;29;20047;-72
2021/09/10 07:36:39;;;;;;;16.52;15.15;;;18.60;76.40;;;;;;4935767;29;20048;-72
2021/09/10 07:39:11;;;;;;;16.63;15.13;;;18.70;74.60;;;;;;4938260;29;20680;-72
2021/09/10 07:41:43;;;;;;;16.70;15.32;;;18.80;73.70;;;;;;4931944;29;20167;-72
2021/09/10 07:44:17;;;;;;;16.50;15.15;;;18.90;75.30;;;;;;4937738;29;20120;-71
2021/09/10 07:46:52;;;;;;;17.35;15.88;;;19.00;73.60;;;;;;4934428;29;20161;-72
2021/09/10 07:49:24;;;;;;;17.45;16.05;;;19.10;73.90;;;;;;4937195;29;20757;-71
2021/09/10 07:51:56;;;;;;;17.50;15.93;;;19.20;73.80;;;;;;4931962;29;20145;-71
2021/09/10 07:54:27;;;;;;;17.00;15.70;;;19.30;73.10;;;;;;4934485;29;20533;-71
2021/09/10 07:57:07;;;;;;;17.45;16.08;;;19.40;72.90;;;;;;4949254;29;20054;-71
2021/09/10 07:59:39;;;;;;;17.25;15.85;;;19.50;72.30;;;;;;4934940;29;20161;-71
2021/09/10 08:02:11;;;;;;;17.08;15.77;;;19.60;72.90;;;;;;4933608;29;20134;-71
2021/09/10 08:04:45;;;;;;;16.80;15.50;;;19.80;72.90;;;;;;4928145;29;20062;-71
2021/09/10 08:07:17;;;;;;;17.08;15.77;;;19.90;71.60;;;;;;4932891;29;20048;-72
2021/09/10 08:10:03;;;;;;;17.90;16.35;;;20.00;71.40;;;;;;4937865;29;20047;-71
2021/09/10 08:12:35;;;;;;;18.30;16.77;;;20.10;70.90;;;;;;4931904;29;20120;-72
2021/09/10 08:15:07;;;;;;;16.67;15.35;;;20.20;75.00;;;;;;4938377;29;20780;-71
2021/09/10 08:17:40;;;;;;;16.85;15.57;;;20.30;71.90;;;;;;4935665;29;20082;-71
2021/09/10 08:20:13;;;;;;;16.75;15.25;;;20.40;72.20;;;;;;4935771;29;20510;-72
2021/09/10 08:22:46;;;;;;;17.08;15.73;;;20.60;69.00;;;;;;4934853;29;20131;-70
2021/09/10 08:25:19;;;;;;;16.80;15.50;;;20.70;71.50;;;;;;4917209;30;20093;-72
2021/09/10 08:27:51;;;;;;;16.33;15.02;;;20.80;69.00;;;;;;4936498;29;20058;-72
2021/09/10 08:30:23;;;;;;;16.92;15.57;;;20.80;67.40;;;;;;4943640;29;20059;-72
2021/09/10 08:32:58;;;;;;;16.67;15.38;;;20.90;68.40;;;;;;4933890;29;20058;-71
2021/09/10 08:35:30;;;;;;;17.15;15.77;;;20.90;68.20;;;;;;4936090;29;20168;-72
2021/09/10 08:38:03;;;;;;;16.75;15.50;;;21.00;66.50;;;;;;4935251;29;20716;-71
2021/09/10 08:40:36;;;;;;;16.95;15.63;;;21.20;66.10;;;;;;4936287;29;20056;-72
2021/09/10 08:43:08;;;;;;;17.42;16.02;;;21.10;62.60;;;;;;4934688;29;20105;-71
2021/09/10 08:45:41;;;;;;;16.63;15.43;;;21.20;68.30;;;;;;4935283;29;20048;-71
2021/09/10 08:48:17;;;;;;;17.05;15.65;;;21.30;63.80;;;;;;4920030;29;20167;-72
2021/09/10 08:50:49;;;;;;;16.50;15.10;;;21.30;62.20;;;;;;4941668;29;20055;-72
2021/09/10 08:53:23;;;;;;;17.23;15.82;;;21.40;62.90;;;;;;4934987;29;20051;-73
2021/09/10 08:55:55;;;;;;;17.40;16.10;;;21.50;66.10;;;;;;4935693;29;20055;-71
2021/09/10 08:58:27;;;;;;;17.13;15.82;;;21.60;62.00;;;;;;4933805;29;20100;-73
2021/09/10 09:01:02;;;;;;;17.35;16.05;;;21.70;67.00;;;;;;4935557;29;20557;-72
2021/09/10 09:03:35;;;;;;;17.25;15.90;;;21.70;65.60;;;;;;4949196;29;20764;-72
2021/09/10 09:06:07;;;;;;;16.80;15.50;;;21.80;66.40;;;;;;4936058;29;20473;-69
2021/09/10 09:08:45;;;;;;;17.10;15.73;;;21.90;65.70;;;;;;4942047;29;20052;-71
2021/09/10 09:11:17;;;;;;;17.58;16.13;;;22.00;65.20;;;;;;4935469;29;20056;-71
2021/09/10 09:13:49;;;;;;;18.15;16.75;;;22.10;64.00;;;;;;4933234;29;20530;-71
2021/09/10 09:16:24;;;;;;;18.95;17.45;;;22.20;64.50;;;;;;4936720;29;20058;-71
2021/09/10 09:19:05;;;;;;;19.70;18.02;;;22.20;66.20;;;;;;4932211;29;20056;-71
2021/09/10 09:21:40;;;;;;;17.92;16.52;;;22.20;62.30;;;;;;4936132;29;20447;-72
2021/09/10 09:24:17;;;;;;;18.55;17.05;;;22.30;61.50;;;;;;4933385;29;20071;-70
2021/09/10 09:26:52;;;;;;;18.58;16.98;;;22.30;61.90;;;;;;4933191;29;20055;-71
2021/09/10 09:29:24;;;;;;;18.63;17.02;;;22.40;61.90;;;;;;4933096;29;20594;-72
2021/09/10 09:32:04;;;;;;;17.73;16.33;;;22.40;59.10;;;;;;4935166;29;20058;-71
2021/09/10 09:34:49;;;;;;;18.15;16.52;;;22.50;61.40;;;;;;4933360;29;20109;-71
2021/09/10 09:37:24;;;;;;;16.83;15.48;;;22.60;59.00;;;;;;4938063;29;20179;-72
2021/09/10 09:40:01;;;;;;;17.80;16.30;;;22.50;58.10;;;;;;4932175;29;20055;-71
2021/09/10 09:42:35;;;;;;;18.35;16.85;;;22.60;61.10;;;;;;4933083;29;20079;-71
2021/09/10 09:45:10;;;;;;;17.85;16.45;;;22.70;60.30;;;;;;4921342;29;20466;-71
2021/09/10 09:47:43;;;;;;;18.02;16.63;;;22.80;59.80;;;;;;4918109;29;20135;-72
2021/09/10 09:50:18;;;;;;;18.83;17.23;;;22.80;60.70;;;;;;4934592;29;20423;-72
2021/09/10 09:52:51;;;;;;;18.75;17.25;;;22.80;61.60;;;;;;4939773;29;20984;-72
2021/09/10 09:55:24;;;;;;;20.42;18.83;;;22.90;61.20;;;;;;4919341;29;20060;-71
2021/09/10 09:57:56;;;;;;;19.17;17.60;;;23.00;62.50;;;;;;4940775;29;20802;-72
2021/09/10 10:00:29;;;;;;;18.48;16.88;;;23.00;61.70;;;;;;4931577;29;20056;-71
2021/09/10 10:03:02;;;;;;;18.13;16.55;;;23.10;61.10;;;;;;4934480;29;20051;-73
2021/09/10 10:05:51;;;;;;;18.45;17.05;;;23.10;60.70;;;;;;4919741;30;20666;-72
2021/09/10 10:08:32;;;;;;;18.55;17.15;;;23.10;60.40;;;;;;4933522;29;20066;-71
2021/09/10 10:11:23;;;;;;;18.45;16.88;;;23.10;60.90;;;;;;4931576;29;20093;-72
2021/09/10 10:14:02;;;;;;;18.40;16.83;;;23.20;61.00;;;;;;4931903;29;20067;-70
2021/09/10 10:16:46;;;;;;;17.90;16.42;;;23.30;62.20;;;;;;4933682;29;20439;-72
2021/09/10 10:19:21;;;;;;;18.08;16.67;;;23.30;60.80;;;;;;4934195;29;20051;-71
2021/09/10 10:21:57;;;;;;;17.67;16.27;;;23.40;61.60;;;;;;4934624;29;20043;-72
2021/09/10 10:24:47;;;;;;;17.75;16.45;;;23.40;60.40;;;;;;4930533;29;20072;-72
2021/09/10 10:27:41;;;;;;;17.55;16.25;;;23.40;59.90;;;;;;4938715;29;20120;-74
2021/09/10 10:30:16;;;;;;;19.10;17.38;;;23.50;60.80;;;;;;4930452;29;20062;-72
2021/09/10 10:32:50;;;;;;;18.55;17.10;;;23.50;59.60;;;;;;4932773;29;20054;-71
2021/09/10 10:35:30;;;;;;;18.00;16.70;;;23.50;60.40;;;;;;4930765;29;20062;-72
2021/09/10 10:38:02;;;;;;;;;;;23.60;59.20;;;;;;4916404;29;20642;-72
2021/09/10 10:40:42;;;;;;;18.02;16.55;;;23.50;58.80;;;;;;4930803;29;19936;-71
2021/09/10 10:43:17;;;;;;;17.60;16.30;;;23.60;57.80;;;;;;4919130;29;20055;-71
2021/09/10 10:45:50;;;;;;;18.00;16.48;;;23.60;59.60;;;;;;4935156;29;20786;-71
2021/09/10 10:48:28;;;;;;;17.55;16.15;;;23.70;59.60;;;;;;4931929;29;20051;-72
2021/09/10 10:51:01;;;;;;;18.80;17.35;;;23.80;60.10;;;;;;4940273;29;20091;-72
2021/09/10 10:53:45;;;;;;;19.02;17.63;;;23.80;59.50;;;;;;4934393;29;20123;-72
2021/09/10 10:56:29;;;;;;;18.98;17.35;;;24.00;58.50;;;;;;4931308;29;20070;-73
2021/09/10 10:59:21;;;;;;;19.67;18.17;;;24.00;58.60;;;;;;4935231;29;20619;-72
2021/09/10 11:02:28;;;;;;;18.20;16.90;;;24.00;59.20;;;;;;4930338;29;20060;-72
2021/09/10 11:05:09;;;;;;;19.30;17.80;;;24.10;57.10;;;;;;4929392;29;20060;-73
2021/09/10 11:07:41;;;;;;;;;;;24.10;57.60;;;;;;4922862;29;20051;-71
2021/09/10 11:10:18;;;;;;;19.05;17.55;;;24.20;57.50;;;;;;4945755;29;20429;-73
2021/09/10 11:12:54;;;;;;;19.55;17.95;;;24.20;57.10;;;;;;4938323;29;20052;-73
2021/09/10 11:15:32;;;;;;;19.95;18.40;;;24.30;58.20;;;;;;4922246;29;20745;-73
2021/09/10 11:18:08;;;;;;;18.60;17.17;;;24.40;58.50;;;;;;4942616;29;20520;-73
2021/09/10 11:20:50;;;;;;;18.70;17.20;;;24.50;56.80;;;;;;4935920;29;20896;-72
2021/09/10 11:23:31;;;;;;;19.90;18.27;;;24.60;57.10;;;;;;4939534;29;20440;-74
2021/09/10 11:26:07;;;;;;;19.50;18.00;;;24.60;56.60;;;;;;4928975;29;20134;-73
2021/09/10 11:28:40;;;;;;;18.75;17.15;;;24.70;57.20;;;;;;4938936;29;20051;-73
2021/09/10 11:31:12;;;;;;;19.58;17.98;;;24.80;57.30;;;;;;4936804;29;20494;-73
2021/09/10 11:33:50;;;;;;;19.65;17.88;;;24.80;56.90;;;;;;4939450;29;20054;-73
2021/09/10 11:36:24;;;;;;;18.98;17.58;;;24.80;55.50;;;;;;4937477;29;20058;-73
2021/09/10 11:39:01;;;;;;;19.95;18.48;;;24.80;55.50;;;;;;4939937;29;20767;-72
2021/09/10 11:41:36;;;;;;;18.55;17.15;;;24.80;56.30;;;;;;4938479;29;20047;-73
2021/09/10 11:44:11;;;;;;;18.85;17.35;;;25.00;57.00;;;;;;4938335;29;20075;-73
2021/09/10 11:46:44;;;;;;;18.15;16.60;;;25.10;56.20;;;;;;4938804;29;20043;-74
2021/09/10 11:49:17;;;;;;;18.75;17.25;;;25.20;55.00;;;;;;4939600;29;20063;-73
2021/09/10 11:51:51;;;;;;;17.83;16.50;;;25.20;55.40;;;;;;4937908;29;20040;-73
2021/09/10 11:54:27;;;;;;;19.00;17.20;;;25.20;53.20;;;;;;4936670;29;20048;-72
2021/09/10 11:57:17;;;;;;;18.75;17.38;;;25.20;54.90;;;;;;4938750;29;20054;-73
2021/09/10 11:59:51;;;;;;;17.63;16.23;;;25.20;52.90;;;;;;4937892;29;20059;-74
2021/09/10 12:02:23;;;;;;;18.98;17.40;;;25.20;53.00;;;;;;4936217;29;20197;-73
2021/09/10 12:04:57;;;;;;;17.95;16.55;;;25.30;53.10;;;;;;4933934;29;20063;-74
2021/09/10 12:07:32;;;;;;;18.25;16.75;;;25.00;53.00;;;;;;4933617;29;20139;-74
2021/09/10 12:10:06;;;;;;;18.10;16.67;;;24.70;54.70;;;;;;4938536;29;20051;-73
2021/09/10 12:12:38;;;;;;;17.48;15.98;;;24.50;55.50;;;;;;4943686;29;20043;-74
2021/09/10 12:15:10;;;;;;;18.63;17.02;;;24.30;55.40;;;;;;4923488;29;20503;-74
2021/09/10 12:17:44;;;;;;;16.55;15.35;;;24.10;55.90;;;;;;4933879;29;20132;-73
2021/09/10 12:20:18;;;;;;;17.70;16.38;;;24.00;54.50;;;;;;4925372;29;20055;-74
2021/09/10 12:22:53;;;;;;;18.17;16.67;;;23.80;57.70;;;;;;4933978;29;20046;-73
2021/09/10 12:25:45;;;;;;;17.42;16.10;;;23.70;57.80;;;;;;4936541;29;20055;-74
2021/09/10 12:28:37;;;;;;;17.50;16.20;;;23.60;58.90;;;;;;4936367;29;20126;-74
2021/09/10 12:31:10;;;;;;;17.45;16.13;;;23.50;60.00;;;;;;4933334;29;20043;-73
2021/09/10 12:33:43;;;;;;;18.45;16.80;;;23.40;57.00;;;;;;4936071;29;20051;-74
2021/09/10 12:36:17;;;;;;;17.77;16.35;;;23.30;58.20;;;;;;4935577;29;20051;-73
2021/09/10 12:38:51;;;;;;;17.70;16.38;;;23.20;58.50;;;;;;4937112;29;20044;-74
2021/09/10 12:41:23;;;;;;;18.25;16.85;;;23.10;61.60;;;;;;4934970;29;20051;-74
2021/09/10 12:43:55;;;;;;;18.55;16.75;;;23.00;59.20;;;;;;4936305;29;20064;-74
2021/09/10 12:46:28;;;;;;;18.50;16.90;;;22.80;62.70;;;;;;4935182;29;20060;-74
2021/09/10 12:49:03;;;;;;;18.45;16.55;;;22.50;64.30;;;;;;4937113;29;20062;-73
2021/09/10 12:51:35;;;;;;;17.95;16.35;;;22.20;65.70;;;;;;4933798;29;20132;-73
2021/09/10 12:54:08;;;;;;;17.77;15.95;;;21.90;67.90;;;;;;4935859;29;20047;-74
2021/09/10 12:56:41;;;;;;;18.88;17.30;;;21.70;69.10;;;;;;4936293;29;20052;-73
2021/09/10 12:59:13;;;;;;;18.15;16.65;;;21.50;70.50;;;;;;4936806;29;20047;-74
2021/09/10 13:01:46;;;;;;;17.67;15.98;;;21.40;71.10;;;;;;4942014;29;20066;-74